createdAt,value
2023-04-17T00:01:04.160Z,19.52
2023-04-17T00:03:32.098Z,20.13
2023-04-17T00:05:56.960Z,20.33
2023-04-17T00:08:21.557Z,19.23
2023-04-17T00:10:53.785Z,19.73
2023-04-17T00:13:25.451Z,20.05
2023-04-17T00:15:52.510Z,18.80
2023-04-17T00:18:17.156Z,16.80
2023-04-17T00:20:42.072Z,19.90
2023-04-17T00:23:07.397Z,19.85
2023-04-17T00:25:31.909Z,20.50
2023-04-17T00:27:56.656Z,22.50
2023-04-17T00:30:21.185Z,23.88
2023-04-17T00:32:47.525Z,24.23
2023-04-17T00:35:12.498Z,20.42
2023-04-17T00:37:37.469Z,22.73
2023-04-17T00:40:02.476Z,21.17
2023-04-17T00:42:29.464Z,17.85
2023-04-17T00:44:54.203Z,22.10
2023-04-17T00:47:22.431Z,22.85
2023-04-17T00:49:48.606Z,24.08
2023-04-17T00:52:14.083Z,25.02
2023-04-17T00:54:38.774Z,23.10
2023-04-17T00:57:04.938Z,20.27
2023-04-17T00:59:30.047Z,23.70
2023-04-17T01:01:54.522Z,24.70
2023-04-17T01:04:19.526Z,24.63
2023-04-17T01:06:46.058Z,25.50
2023-04-17T01:09:11.279Z,22.75
2023-04-17T01:11:36.464Z,25.70
2023-04-17T01:14:01.128Z,19.20
2023-04-17T01:16:25.694Z,23.10
2023-04-17T01:18:50.827Z,23.80
2023-04-17T01:21:16.698Z,27.15
2023-04-17T01:23:50.148Z,26.02
2023-04-17T01:26:19.566Z,24.48
2023-04-17T01:28:44.154Z,24.83
2023-04-17T01:31:08.910Z,20.45
2023-04-17T01:33:33.540Z,23.58
2023-04-17T01:35:58.237Z,23.60
2023-04-17T01:38:22.839Z,22.35
2023-04-17T01:40:47.303Z,25.33
2023-04-17T01:43:13.551Z,21.70
2023-04-17T01:45:38.132Z,22.92
2023-04-17T01:48:02.676Z,24.65
2023-04-17T01:50:27.765Z,21.92
2023-04-17T01:52:52.344Z,22.70
2023-04-17T01:55:16.948Z,22.20
2023-04-17T01:57:42.433Z,21.35
2023-04-17T02:00:10.965Z,21.48
2023-04-17T02:02:38.657Z,20.27
2023-04-17T02:05:03.761Z,21.00
2023-04-17T02:07:28.410Z,19.75
2023-04-17T02:09:52.959Z,19.30
2023-04-17T02:12:17.589Z,20.23
2023-04-17T02:14:42.233Z,20.48
2023-04-17T02:17:08.303Z,20.25
2023-04-17T02:19:32.916Z,15.70
2023-04-17T02:22:00.940Z,24.70
2023-04-17T02:24:25.589Z,24.75
2023-04-17T02:26:50.046Z,23.58
2023-04-17T02:29:14.690Z,27.23
2023-04-17T02:31:42.510Z,22.00
2023-04-17T02:34:10.741Z,26.58
2023-04-17T02:36:37.385Z,27.50
2023-04-17T02:39:02.503Z,22.23
2023-04-17T02:41:26.899Z,25.45
2023-04-17T02:43:51.923Z,25.83
2023-04-17T02:46:16.652Z,23.65
2023-04-17T02:48:41.975Z,25.65
2023-04-17T02:51:07.968Z,27.38
2023-04-17T02:53:32.743Z,20.15
2023-04-17T02:55:57.273Z,21.90
2023-04-17T02:58:22.535Z,20.63
2023-04-17T03:00:47.181Z,20.17
2023-04-17T03:03:15.181Z,19.88
2023-04-17T03:05:39.894Z,21.13
2023-04-17T03:08:07.303Z,23.67
2023-04-17T03:10:40.151Z,22.65
2023-04-17T03:13:05.003Z,23.30
2023-04-17T03:15:31.174Z,23.58
2023-04-17T03:17:56.271Z,25.67
2023-04-17T03:20:21.237Z,26.23
2023-04-17T03:22:46.122Z,25.55
2023-04-17T03:25:13.327Z,23.65
2023-04-17T03:27:52.562Z,28.88
2023-04-17T03:30:20.031Z,28.65
2023-04-17T03:32:47.137Z,27.60
2023-04-17T03:35:12.286Z,28.17
2023-04-17T03:37:36.733Z,26.33
2023-04-17T03:40:01.586Z,27.65
2023-04-17T03:42:29.963Z,28.73
2023-04-17T03:44:55.632Z,23.88
2023-04-17T03:47:21.923Z,26.15
2023-04-17T03:49:46.493Z,24.63
2023-04-17T03:52:11.082Z,26.40
2023-04-17T03:54:36.871Z,21.73
2023-04-17T03:57:04.053Z,23.00
2023-04-17T03:59:31.701Z,23.10
2023-04-17T04:01:56.882Z,23.52
2023-04-17T04:04:22.394Z,23.17
2023-04-17T04:06:54.607Z,22.55
2023-04-17T04:09:19.361Z,19.88
2023-04-17T04:11:44.038Z,22.60
2023-04-17T04:14:08.813Z,23.08
2023-04-17T04:16:35.366Z,20.25
2023-04-17T04:19:08.044Z,18.08
2023-04-17T04:21:33.131Z,13.73
2023-04-17T04:23:58.305Z,19.33
2023-04-17T04:26:24.473Z,19.85
2023-04-17T04:28:51.797Z,20.40
2023-04-17T04:31:30.691Z,19.95
2023-04-17T04:34:01.367Z,20.50
2023-04-17T04:36:29.938Z,17.90
2023-04-17T04:39:20.858Z,20.60
2023-04-17T04:41:46.481Z,18.23
2023-04-17T04:44:12.629Z,17.63
2023-04-17T04:46:39.162Z,19.00
2023-04-17T04:49:05.139Z,18.48
2023-04-17T04:51:33.931Z,18.70
2023-04-17T04:54:02.141Z,18.50
2023-04-17T04:56:26.892Z,17.70
2023-04-17T04:58:51.786Z,19.60
2023-04-17T05:01:17.659Z,18.83
2023-04-17T05:03:45.103Z,18.90
2023-04-17T05:06:16.202Z,18.70
2023-04-17T05:08:46.334Z,17.40
2023-04-17T05:11:13.036Z,17.73
2023-04-17T05:13:37.666Z,19.05
2023-04-17T05:16:04.277Z,17.13
2023-04-17T05:18:29.049Z,15.63
2023-04-17T05:20:54.304Z,16.73
2023-04-17T05:23:23.085Z,19.08
2023-04-17T05:25:49.186Z,26.33
2023-04-17T05:28:15.473Z,21.15
2023-04-17T05:30:41.791Z,18.83
2023-04-17T05:33:13.709Z,21.27
2023-04-17T05:35:47.584Z,18.55
2023-04-17T05:38:13.532Z,18.83
2023-04-17T05:40:39.368Z,17.35
2023-04-17T05:43:10.579Z,21.85
2023-04-17T05:45:36.746Z,16.17
2023-04-17T05:48:01.779Z,18.92
2023-04-17T05:50:26.612Z,21.63
2023-04-17T05:52:51.357Z,19.90
2023-04-17T05:55:16.909Z,19.85
2023-04-17T05:57:42.936Z,17.20
2023-04-17T06:00:13.160Z,19.33
2023-04-17T06:02:44.100Z,19.58
2023-04-17T06:05:16.614Z,17.13
2023-04-17T06:07:43.001Z,21.13
2023-04-17T06:10:11.449Z,20.92
2023-04-17T06:12:36.783Z,19.55
2023-04-17T06:15:09.102Z,19.15
2023-04-17T06:17:34.084Z,19.42
2023-04-17T06:19:58.977Z,19.30
2023-04-17T06:22:24.407Z,16.45
2023-04-17T06:24:49.195Z,15.55
2023-04-17T06:27:14.417Z,17.67
2023-04-17T06:29:38.910Z,16.83
2023-04-17T06:32:05.135Z,15.70
2023-04-17T06:34:29.668Z,12.45
2023-04-17T06:36:54.725Z,17.65
2023-04-17T06:39:19.393Z,17.52
2023-04-17T06:41:48.557Z,14.63
2023-04-17T06:44:21.838Z,15.73
2023-04-17T06:46:46.799Z,13.20
2023-04-17T06:49:13.167Z,13.40
2023-04-17T06:51:37.870Z,15.30
2023-04-17T06:54:02.364Z,13.80
2023-04-17T06:56:27.256Z,17.20
2023-04-17T06:58:51.949Z,15.40
2023-04-17T07:01:16.987Z,15.75
2023-04-17T07:03:42.736Z,14.77
2023-04-17T07:06:10.798Z,13.10
2023-04-17T07:08:35.319Z,18.05
2023-04-17T07:11:00.752Z,17.27
2023-04-17T07:13:25.232Z,15.85
2023-04-17T07:15:53.533Z,17.40
2023-04-17T07:18:18.197Z,15.77
2023-04-17T07:20:42.829Z,15.80
2023-04-17T07:23:09.144Z,17.60
2023-04-17T07:25:35.448Z,16.55
2023-04-17T07:28:00.012Z,16.55
2023-04-17T07:30:24.628Z,16.63
2023-04-17T07:32:49.188Z,15.90
2023-04-17T07:35:13.879Z,14.73
2023-04-17T07:37:38.277Z,16.15
2023-04-17T07:40:10.373Z,13.95
2023-04-17T07:42:35.021Z,10.10
2023-04-17T07:44:59.594Z,14.63
2023-04-17T07:47:24.600Z,15.30
2023-04-17T07:49:50.483Z,14.55
2023-04-17T07:52:18.036Z,14.48
2023-04-17T07:54:42.622Z,15.52
2023-04-17T07:57:08.561Z,15.95
2023-04-17T07:59:33.157Z,17.65
2023-04-17T08:01:58.303Z,19.85
2023-04-17T08:04:24.459Z,18.02
2023-04-17T08:06:49.671Z,18.02
2023-04-17T08:09:14.371Z,19.58
2023-04-17T08:11:53.355Z,19.00
2023-04-17T08:14:23.810Z,18.95
2023-04-17T08:16:48.753Z,18.08
2023-04-17T08:19:13.756Z,22.20
2023-04-17T08:21:38.638Z,19.65
2023-04-17T08:24:03.500Z,21.63
2023-04-17T08:26:28.563Z,23.33
2023-04-17T08:28:53.745Z,21.83
2023-04-17T08:31:19.765Z,20.25
2023-04-17T08:33:44.855Z,21.30
2023-04-17T08:36:10.575Z,20.67
2023-04-17T08:38:35.257Z,20.25
2023-04-17T08:41:05.682Z,20.88
2023-04-17T08:43:30.599Z,20.73
2023-04-17T08:45:55.848Z,20.58
2023-04-17T08:48:22.647Z,20.10
2023-04-17T08:50:49.631Z,18.23
2023-04-17T08:53:14.482Z,17.55
2023-04-17T08:55:40.542Z,16.17
2023-04-17T08:58:07.659Z,18.80
2023-04-17T09:00:34.098Z,18.88
2023-04-17T09:03:01.188Z,19.45
2023-04-17T09:05:30.380Z,18.08
2023-04-17T09:08:09.281Z,17.13
2023-04-17T09:10:37.861Z,19.65
2023-04-17T09:13:02.638Z,16.85
2023-04-17T09:15:27.435Z,20.58
2023-04-17T09:17:54.906Z,19.90
2023-04-17T09:20:20.107Z,18.20
2023-04-17T09:22:46.597Z,14.52
2023-04-17T09:25:18.740Z,18.88
2023-04-17T09:27:46.040Z,21.67
2023-04-17T09:30:11.156Z,22.98
2023-04-17T09:32:36.570Z,23.15
2023-04-17T09:35:02.823Z,18.75
2023-04-17T09:37:51.314Z,15.33
2023-04-17T09:40:16.352Z,20.48
2023-04-17T09:42:56.273Z,22.40
2023-04-17T09:45:22.371Z,20.83
2023-04-17T09:47:49.259Z,20.90
2023-04-17T09:50:15.444Z,20.73
2023-04-17T09:52:41.595Z,20.92
2023-04-17T09:55:10.584Z,22.90
2023-04-17T09:57:35.255Z,21.13
2023-04-17T10:00:04.237Z,22.58
2023-04-17T10:02:33.055Z,21.83
2023-04-17T10:04:58.234Z,24.17
2023-04-17T10:07:22.869Z,22.95
2023-04-17T10:09:48.246Z,22.90
2023-04-17T10:12:16.963Z,21.67
2023-04-17T10:14:44.209Z,21.13
2023-04-17T10:17:24.958Z,18.55
2023-04-17T10:19:50.264Z,21.17
2023-04-17T10:22:31.804Z,18.33
2023-04-17T10:25:20.149Z,19.92
2023-04-17T10:27:47.566Z,22.92
2023-04-17T10:30:13.893Z,18.40
2023-04-17T10:32:39.367Z,14.98
2023-04-17T10:35:24.690Z,21.17
2023-04-17T10:38:05.949Z,15.10
2023-04-17T10:40:33.729Z,20.85
2023-04-17T10:43:09.821Z,20.42
2023-04-17T10:45:56.599Z,21.25
2023-04-17T10:48:23.042Z,17.92
2023-04-17T10:50:47.795Z,21.25
2023-04-17T10:53:40.252Z,20.10
2023-04-17T10:56:05.172Z,18.98
2023-04-17T10:58:32.144Z,17.27
2023-04-17T11:00:56.866Z,15.82
2023-04-17T11:03:26.076Z,17.15
2023-04-17T11:05:52.020Z,18.95
2023-04-17T11:08:17.414Z,17.52
2023-04-17T11:10:42.051Z,18.50
2023-04-17T11:13:07.117Z,16.08
2023-04-17T11:15:35.084Z,17.17
2023-04-17T11:18:03.154Z,17.27
2023-04-17T11:20:30.145Z,16.50
2023-04-17T11:22:54.695Z,18.50
2023-04-17T11:25:24.085Z,20.83
2023-04-17T11:27:51.545Z,19.05
2023-04-17T11:30:25.619Z,15.68
2023-04-17T11:32:52.729Z,19.63
2023-04-17T11:35:17.516Z,20.05
2023-04-17T11:38:11.856Z,21.55
2023-04-17T11:40:36.716Z,20.23
2023-04-17T11:43:07.928Z,22.05
2023-04-17T11:45:33.111Z,21.60
2023-04-17T11:47:59.399Z,19.27
2023-04-17T11:50:24.016Z,22.77
2023-04-17T11:52:48.568Z,21.25
2023-04-17T11:55:13.441Z,24.90
2023-04-17T11:57:43.495Z,22.55
2023-04-17T12:00:14.644Z,23.38
2023-04-17T12:02:40.819Z,24.38
2023-04-17T12:05:17.798Z,23.30
2023-04-17T12:07:42.549Z,20.67
2023-04-17T12:10:08.599Z,22.25
2023-04-17T12:12:33.289Z,24.08
2023-04-17T12:14:59.146Z,24.92
2023-04-17T12:17:23.855Z,25.02
2023-04-17T12:19:48.581Z,24.25
2023-04-17T12:22:14.841Z,25.15
2023-04-17T12:24:39.433Z,21.70
2023-04-17T12:27:04.532Z,24.13
2023-04-17T12:29:43.080Z,23.30
2023-04-17T12:32:10.545Z,23.17
2023-04-17T12:34:35.302Z,24.42
2023-04-17T12:36:59.967Z,22.60
2023-04-17T12:39:28.945Z,20.65
2023-04-17T12:41:53.882Z,20.97
2023-04-17T12:44:18.314Z,19.83
2023-04-17T12:46:43.194Z,22.10
2023-04-17T12:49:07.913Z,18.02
2023-04-17T12:51:37.773Z,18.65
2023-04-17T12:54:02.519Z,19.85
2023-04-17T12:56:29.036Z,21.80
2023-04-17T12:58:53.636Z,17.40
2023-04-17T13:01:18.457Z,18.25
2023-04-17T13:03:43.761Z,17.17
2023-04-17T13:06:08.982Z,18.55
2023-04-17T13:08:34.012Z,17.02
2023-04-17T13:11:00.017Z,16.05
2023-04-17T13:13:26.927Z,18.10
2023-04-17T13:15:51.610Z,18.75
2023-04-17T13:18:16.353Z,18.15
2023-04-17T13:20:41.247Z,19.08
2023-04-17T13:23:05.933Z,19.23
2023-04-17T13:25:31.532Z,18.65
2023-04-17T13:27:56.330Z,16.98
2023-04-17T13:30:22.874Z,17.90
2023-04-17T13:32:47.736Z,14.68
2023-04-17T13:35:13.490Z,18.75
2023-04-17T13:37:38.232Z,18.25
2023-04-17T13:40:05.272Z,19.15
2023-04-17T13:42:30.038Z,17.58
2023-04-17T13:44:55.347Z,17.67
2023-04-17T13:47:21.502Z,16.70
2023-04-17T13:49:46.105Z,14.70
2023-04-17T13:52:10.763Z,17.17
2023-04-17T13:54:39.778Z,13.25
2023-04-17T13:57:10.079Z,15.40
2023-04-17T13:59:34.773Z,14.77
2023-04-17T14:02:01.588Z,15.77
2023-04-17T14:04:28.092Z,14.18
2023-04-17T14:06:52.813Z,13.50
2023-04-17T14:09:17.742Z,16.00
2023-04-17T14:11:42.313Z,17.45
2023-04-17T14:14:06.923Z,17.88
2023-04-17T14:16:31.541Z,16.17
2023-04-17T14:18:57.894Z,15.32
2023-04-17T14:21:27.853Z,17.83
2023-04-17T14:23:52.540Z,19.42
2023-04-17T14:26:17.366Z,18.90
2023-04-17T14:28:42.479Z,16.63
2023-04-17T14:31:07.520Z,16.67
2023-04-17T14:33:32.130Z,16.27
2023-04-17T14:35:57.747Z,17.92
2023-04-17T14:38:26.609Z,17.88
2023-04-17T14:40:51.535Z,16.13
2023-04-17T14:43:16.125Z,15.80
2023-04-17T14:45:41.109Z,17.15
2023-04-17T14:48:06.238Z,16.58
2023-04-17T14:50:31.051Z,15.77
2023-04-17T14:52:55.916Z,15.10
2023-04-17T14:55:22.436Z,16.33
2023-04-17T14:57:47.358Z,16.80
2023-04-17T15:00:12.762Z,14.93
2023-04-17T15:02:39.510Z,14.30
2023-04-17T15:05:04.803Z,14.55
2023-04-17T15:07:29.930Z,14.45
2023-04-17T15:09:56.334Z,13.60
2023-04-17T15:12:22.926Z,14.82
2023-04-17T15:14:47.713Z,14.13
2023-04-17T15:17:12.486Z,13.52
2023-04-17T15:19:37.557Z,14.13
2023-04-17T15:22:02.334Z,13.15
2023-04-17T15:24:27.267Z,14.23
2023-04-17T15:26:52.441Z,14.85
2023-04-17T15:29:18.539Z,14.63
2023-04-17T15:31:43.294Z,13.55
2023-04-17T15:34:08.769Z,12.68
2023-04-17T15:36:33.485Z,12.50
2023-04-17T15:38:59.344Z,15.30
2023-04-17T15:41:24.148Z,13.32
2023-04-17T15:43:49.075Z,12.95
2023-04-17T15:46:15.126Z,15.05
2023-04-17T15:48:39.737Z,14.48
2023-04-17T15:51:05.191Z,14.20
2023-04-17T15:53:30.323Z,12.77
2023-04-17T15:55:54.874Z,13.63
2023-04-17T15:58:19.787Z,14.35
2023-04-17T16:00:44.288Z,13.27
2023-04-17T16:03:10.697Z,14.23
2023-04-17T16:05:35.526Z,14.60
2023-04-17T16:08:01.449Z,15.52
2023-04-17T16:10:26.438Z,12.52
2023-04-17T16:12:51.238Z,13.63
2023-04-17T16:15:18.438Z,11.65
2023-04-17T16:17:43.383Z,13.15
2023-04-17T16:20:11.071Z,11.43
2023-04-17T16:22:36.148Z,11.60
2023-04-17T16:25:01.895Z,13.52
2023-04-17T16:27:30.609Z,11.20
2023-04-17T16:29:55.174Z,12.05
2023-04-17T16:32:22.691Z,11.55
2023-04-17T16:34:47.644Z,12.13
2023-04-17T16:37:14.928Z,9.85
2023-04-17T16:39:39.619Z,11.77
2023-04-17T16:42:04.471Z,11.65
2023-04-17T16:44:29.774Z,12.38
2023-04-17T16:47:10.017Z,11.20
2023-04-17T16:49:37.861Z,10.95
2023-04-17T16:52:02.590Z,12.43
2023-04-17T16:54:28.725Z,13.00
2023-04-17T16:56:53.638Z,12.07
2023-04-17T16:59:18.718Z,9.43
2023-04-17T17:01:43.785Z,12.52
2023-04-17T17:04:08.570Z,10.95
2023-04-17T17:06:33.204Z,11.82
2023-04-17T17:08:59.675Z,10.05
2023-04-17T17:11:25.850Z,11.50
2023-04-17T17:13:51.288Z,10.95
2023-04-17T17:16:17.195Z,12.43
2023-04-17T17:18:42.377Z,11.32
2023-04-17T17:21:07.383Z,11.93
2023-04-17T17:23:32.280Z,11.98
2023-04-17T17:25:59.112Z,11.43
2023-04-17T17:28:28.527Z,11.88
2023-04-17T17:31:00.694Z,11.30
2023-04-17T17:33:25.283Z,11.30
2023-04-17T17:35:50.392Z,11.55
2023-04-17T17:38:15.069Z,10.70
2023-04-17T17:40:39.570Z,11.75
2023-04-17T17:43:06.709Z,11.80
2023-04-17T17:45:32.856Z,11.85
2023-04-17T17:48:01.627Z,11.25
2023-04-17T17:50:26.494Z,9.73
2023-04-17T17:52:51.478Z,11.32
2023-04-17T17:55:16.687Z,10.90
2023-04-17T17:57:48.889Z,11.45
2023-04-17T18:00:18.661Z,11.48
2023-04-17T18:02:44.940Z,11.88
2023-04-17T18:05:10.176Z,12.88
2023-04-17T18:07:35.562Z,11.57
2023-04-17T18:10:00.364Z,10.57
2023-04-17T18:12:25.117Z,13.32
2023-04-17T18:14:49.832Z,10.52
2023-04-17T18:17:14.806Z,11.05
2023-04-17T18:19:42.127Z,11.45
2023-04-17T18:22:08.896Z,12.52
2023-04-17T18:24:33.545Z,11.38
2023-04-17T18:26:58.492Z,11.75
2023-04-17T18:29:23.425Z,10.35
2023-04-17T18:31:48.217Z,9.77
2023-04-17T18:34:13.265Z,11.82
2023-04-17T18:36:39.600Z,9.13
2023-04-17T18:39:04.435Z,11.68
2023-04-17T18:41:29.372Z,12.35
2023-04-17T18:43:54.076Z,15.85
2023-04-17T18:46:18.852Z,12.13
2023-04-17T18:48:43.786Z,12.13
2023-04-17T18:51:12.621Z,12.10
2023-04-17T18:53:38.757Z,11.93
2023-04-17T18:56:03.349Z,12.43
2023-04-17T18:58:30.050Z,10.50
2023-04-17T19:00:54.887Z,14.25
2023-04-17T19:03:19.775Z,13.85
2023-04-17T19:05:44.342Z,15.15
2023-04-17T19:08:09.702Z,11.15
2023-04-17T19:10:36.730Z,16.23
2023-04-17T19:13:02.079Z,14.38
2023-04-17T19:15:26.622Z,15.27
2023-04-17T19:17:53.257Z,16.13
2023-04-17T19:20:18.125Z,14.68
2023-04-17T19:22:43.371Z,14.98
2023-04-17T19:25:08.580Z,15.45
2023-04-17T19:27:34.675Z,16.70
2023-04-17T19:29:59.222Z,17.10
2023-04-17T19:32:23.718Z,15.80
2023-04-17T19:34:48.221Z,14.60
2023-04-17T19:37:12.932Z,14.15
2023-04-17T19:39:39.764Z,14.27
2023-04-17T19:42:04.608Z,11.50
2023-04-17T19:44:30.657Z,10.50
2023-04-17T19:46:55.442Z,8.93
2023-04-17T19:49:19.911Z,12.70
2023-04-17T19:51:44.653Z,12.45
2023-04-17T19:54:10.002Z,8.32
2023-04-17T19:56:34.541Z,11.52
2023-04-17T19:59:02.217Z,10.98
2023-04-17T20:01:28.664Z,10.07
2023-04-17T20:03:53.372Z,11.95
2023-04-17T20:06:17.944Z,11.93
2023-04-17T20:08:42.342Z,9.85
2023-04-17T20:11:06.903Z,13.27
2023-04-17T20:13:31.449Z,11.07
2023-04-17T20:15:56.064Z,12.00
2023-04-17T20:18:21.952Z,13.13
2023-04-17T20:20:46.752Z,12.85
2023-04-17T20:23:12.513Z,11.68
2023-04-17T20:25:37.128Z,12.55
2023-04-17T20:28:03.201Z,9.25
2023-04-17T20:30:31.142Z,11.57
2023-04-17T20:32:56.453Z,11.05
2023-04-17T20:35:24.604Z,9.75
2023-04-17T20:37:49.279Z,14.07
2023-04-17T20:40:14.278Z,13.32
2023-04-17T20:42:39.875Z,13.70
2023-04-17T20:45:04.981Z,13.18
2023-04-17T20:47:29.613Z,14.57
2023-04-17T20:49:54.104Z,13.30
2023-04-17T20:52:19.906Z,10.15
2023-04-17T20:54:45.607Z,14.68
2023-04-17T20:57:10.407Z,13.02
2023-04-17T20:59:36.612Z,14.77
2023-04-17T21:02:01.327Z,13.57
2023-04-17T21:04:26.126Z,12.70
2023-04-17T21:06:50.855Z,13.52
2023-04-17T21:09:17.114Z,13.02
2023-04-17T21:11:41.650Z,13.73
2023-04-17T21:14:06.495Z,14.05
2023-04-17T21:16:31.485Z,13.07
2023-04-17T21:18:56.038Z,12.35
2023-04-17T21:21:20.527Z,11.50
2023-04-17T21:23:45.163Z,13.23
2023-04-17T21:26:11.517Z,12.70
2023-04-17T21:28:37.995Z,9.20
2023-04-17T21:31:02.472Z,11.88
2023-04-17T21:33:27.102Z,10.30
2023-04-17T21:35:51.729Z,12.30
2023-04-17T21:38:16.316Z,12.52
2023-04-17T21:40:50.615Z,12.05
2023-04-17T21:43:17.663Z,11.30
2023-04-17T21:45:42.309Z,11.75
2023-04-17T21:48:06.946Z,12.80
2023-04-17T21:50:32.012Z,12.30
2023-04-17T21:52:56.621Z,10.82
2023-04-17T21:55:21.322Z,11.48
2023-04-17T21:57:46.411Z,13.02
2023-04-17T22:00:14.560Z,13.75
2023-04-17T22:02:39.237Z,13.52
2023-04-17T22:05:04.062Z,11.35
2023-04-17T22:07:28.901Z,12.65
2023-04-17T22:09:53.322Z,12.95
2023-04-17T22:12:20.669Z,13.60
2023-04-17T22:14:45.267Z,13.98
2023-04-17T22:17:11.226Z,12.73
2023-04-17T22:19:35.822Z,13.15
2023-04-17T22:22:00.485Z,13.75
2023-04-17T22:24:25.040Z,13.57
2023-04-17T22:26:49.690Z,13.90
2023-04-17T22:29:14.449Z,11.63
2023-04-17T22:31:40.514Z,13.55
2023-04-17T22:34:06.643Z,13.25
2023-04-17T22:36:31.758Z,14.20
2023-04-17T22:38:56.238Z,14.05
2023-04-17T22:41:20.921Z,14.07
2023-04-17T22:43:48.688Z,15.15
2023-04-17T22:46:13.381Z,14.98
2023-04-17T22:48:38.062Z,13.55
2023-04-17T22:51:04.618Z,16.08
2023-04-17T22:53:29.674Z,14.10
2023-04-17T22:56:04.544Z,15.25
2023-04-17T22:58:29.276Z,16.83
2023-04-17T23:00:53.792Z,16.63
2023-04-17T23:03:18.543Z,15.55
2023-04-17T23:05:43.201Z,15.70
2023-04-17T23:08:09.450Z,14.70
2023-04-17T23:10:33.936Z,16.00
2023-04-17T23:12:58.573Z,15.25
2023-04-17T23:15:23.368Z,14.70
2023-04-17T23:17:48.157Z,15.57
2023-04-17T23:20:13.743Z,14.20
2023-04-17T23:22:38.588Z,16.60
2023-04-17T23:25:04.765Z,14.38
2023-04-17T23:27:29.432Z,15.80
2023-04-17T23:29:53.879Z,14.80
2023-04-17T23:32:18.396Z,15.35
2023-04-17T23:34:43.580Z,16.63
2023-04-17T23:37:08.166Z,14.18
2023-04-17T23:39:32.904Z,16.35
2023-04-17T23:42:00.474Z,15.15
2023-04-17T23:44:24.976Z,16.05
2023-04-17T23:46:49.488Z,15.23
2023-04-17T23:49:14.274Z,17.48
2023-04-17T23:51:39.693Z,16.20
2023-04-17T23:54:04.287Z,15.43
2023-04-17T23:56:30.179Z,15.52
2023-04-17T23:58:56.351Z,15.90
